createdAt,value
2022-09-15T00:00:33.827Z,7.70
2022-09-15T00:01:33.855Z,7.40
2022-09-15T00:02:33.936Z,7.70
2022-09-15T00:03:33.791Z,7.30
2022-09-15T00:04:33.776Z,7.90
2022-09-15T00:05:33.798Z,9.30
2022-09-15T00:06:33.775Z,9.10
2022-09-15T00:07:33.814Z,8.70
2022-09-15T00:08:33.744Z,8.80
2022-09-15T00:09:33.752Z,10.40
2022-09-15T00:10:33.773Z,8.20
2022-09-15T00:11:33.816Z,12.20
2022-09-15T00:12:33.753Z,7.70
2022-09-15T00:13:33.735Z,7.90
2022-09-15T00:14:33.763Z,8.50
2022-09-15T00:15:33.706Z,9.10
2022-09-15T00:16:33.801Z,17.60
2022-09-15T00:17:33.665Z,25.70
2022-09-15T00:18:33.684Z,17.30
2022-09-15T00:19:33.662Z,24.50
2022-09-15T00:20:33.665Z,35.50
2022-09-15T00:21:33.691Z,10.70
2022-09-15T00:22:33.662Z,8.30
2022-09-15T00:23:33.637Z,9.90
2022-09-15T00:24:33.628Z,9.30
2022-09-15T00:25:33.601Z,17.00
2022-09-15T00:26:33.594Z,17.70
2022-09-15T00:27:33.593Z,11.50
2022-09-15T00:28:33.605Z,11.30
2022-09-15T00:29:33.598Z,14.50
2022-09-15T00:30:33.600Z,10.30
2022-09-15T00:31:33.559Z,8.70
2022-09-15T00:32:33.596Z,8.90
2022-09-15T00:33:33.572Z,11.00
2022-09-15T00:34:33.595Z,8.40
2022-09-15T00:35:33.559Z,9.50
2022-09-15T00:36:33.537Z,13.80
2022-09-15T00:37:33.531Z,9.30
2022-09-15T00:38:33.555Z,13.70
2022-09-15T00:39:33.494Z,9.50
2022-09-15T00:40:33.593Z,10.10
2022-09-15T00:41:33.489Z,12.20
2022-09-15T00:42:33.491Z,9.30
2022-09-15T00:43:33.473Z,8.20
2022-09-15T00:44:33.537Z,8.00
2022-09-15T00:45:33.552Z,8.50
2022-09-15T00:46:33.499Z,8.50
2022-09-15T00:47:33.425Z,10.30
2022-09-15T00:48:33.435Z,9.70
2022-09-15T00:49:33.427Z,9.60
2022-09-15T00:50:33.434Z,9.80
2022-09-15T00:51:33.455Z,9.50
2022-09-15T00:52:33.399Z,9.20
2022-09-15T00:53:33.391Z,9.00
2022-09-15T00:54:33.399Z,9.10
2022-09-15T00:55:33.391Z,8.30
2022-09-15T00:56:33.366Z,8.60
2022-09-15T00:57:33.512Z,9.40
2022-09-15T00:58:33.359Z,9.10
2022-09-15T00:59:33.357Z,9.60
2022-09-15T01:00:33.333Z,8.70
2022-09-15T01:01:33.380Z,8.60
2022-09-15T01:02:33.484Z,9.00
2022-09-15T01:03:33.328Z,9.10
2022-09-15T01:04:33.314Z,9.80
2022-09-15T01:05:33.293Z,12.00
2022-09-15T01:06:33.315Z,12.60
2022-09-15T01:07:33.361Z,12.30
2022-09-15T01:08:33.264Z,10.50
2022-09-15T01:09:33.301Z,11.10
2022-09-15T01:10:33.414Z,10.40
2022-09-15T01:11:33.266Z,10.80
2022-09-15T01:12:33.258Z,10.70
2022-09-15T01:13:33.262Z,10.60
2022-09-15T01:14:33.216Z,10.50
2022-09-15T01:15:33.305Z,10.10
2022-09-15T01:16:33.277Z,9.70
2022-09-15T01:17:33.198Z,10.80
2022-09-15T01:18:33.214Z,10.20
2022-09-15T01:19:33.219Z,10.10
2022-09-15T01:20:33.205Z,11.10
2022-09-15T01:21:33.166Z,10.00
2022-09-15T01:22:33.161Z,11.60
2022-09-15T01:23:33.181Z,15.30
2022-09-15T01:24:33.141Z,11.40
2022-09-15T01:25:33.152Z,11.40
2022-09-15T01:26:33.153Z,13.10
2022-09-15T01:27:44.650Z,11.50
2022-09-15T01:28:35.123Z,14.40
2022-09-15T01:29:33.095Z,13.60
2022-09-15T01:30:33.087Z,11.90
2022-09-15T01:31:33.192Z,12.20
2022-09-15T01:32:33.072Z,11.70
2022-09-15T01:33:33.113Z,11.30
2022-09-15T01:34:33.065Z,11.40
2022-09-15T01:35:33.055Z,11.10
2022-09-15T01:36:33.044Z,11.50
2022-09-15T01:37:33.020Z,10.90
2022-09-15T01:38:33.124Z,12.40
2022-09-15T01:39:33.132Z,13.40
2022-09-15T01:40:33.098Z,13.50
2022-09-15T01:41:33.008Z,12.10
2022-09-15T01:42:33.010Z,12.50
2022-09-15T01:43:33.009Z,15.60
2022-09-15T01:44:33.013Z,14.20
2022-09-15T01:45:33.061Z,14.00
2022-09-15T01:46:32.971Z,16.60
2022-09-15T01:47:32.967Z,15.10
2022-09-15T01:48:32.968Z,17.10
2022-09-15T01:49:32.980Z,16.80
2022-09-15T01:50:32.953Z,17.20
2022-09-15T01:51:32.954Z,18.50
2022-09-15T01:52:32.959Z,17.60
2022-09-15T01:53:32.934Z,19.10
2022-09-15T01:54:32.939Z,18.20
2022-09-15T01:55:32.895Z,18.80
2022-09-15T01:56:32.898Z,18.00
2022-09-15T01:57:32.916Z,19.30
2022-09-15T01:58:32.884Z,18.80
2022-09-15T01:59:32.896Z,19.60
2022-09-15T02:00:32.860Z,19.80
2022-09-15T02:01:32.968Z,19.80
2022-09-15T02:02:32.923Z,18.80
2022-09-15T02:03:32.857Z,18.70
2022-09-15T02:04:32.842Z,18.50
2022-09-15T02:05:32.832Z,19.10
2022-09-15T02:06:32.848Z,20.80
2022-09-15T02:07:32.811Z,19.80
2022-09-15T02:08:32.841Z,19.80
2022-09-15T02:09:32.834Z,20.00
2022-09-15T02:10:32.791Z,20.40
2022-09-15T02:11:32.774Z,18.90
2022-09-15T02:12:32.766Z,21.00
2022-09-15T02:13:32.784Z,21.70
2022-09-15T02:14:35.277Z,18.80
2022-09-15T02:15:34.599Z,18.30
2022-09-15T02:16:34.786Z,18.70
2022-09-15T02:17:34.939Z,20.70
2022-09-15T02:18:33.614Z,20.50
2022-09-15T02:19:33.788Z,22.10
2022-09-15T02:20:34.460Z,26.70
2022-09-15T02:21:36.991Z,24.00
2022-09-15T02:22:34.704Z,22.70
2022-09-15T02:23:35.771Z,20.50
2022-09-15T02:24:33.327Z,21.90
2022-09-15T02:25:35.455Z,21.60
2022-09-15T02:26:33.477Z,22.10
2022-09-15T02:27:34.133Z,22.50
2022-09-15T02:28:35.991Z,19.70
2022-09-15T02:29:33.846Z,20.80
2022-09-15T02:30:36.724Z,21.10
2022-09-15T02:31:33.317Z,22.10
2022-09-15T02:32:33.559Z,22.00
2022-09-15T02:33:34.322Z,25.00
2022-09-15T02:34:34.263Z,25.50
2022-09-15T02:35:33.566Z,22.70
2022-09-15T02:36:34.112Z,22.10
2022-09-15T02:37:36.362Z,21.00
2022-09-15T02:38:33.349Z,21.00
2022-09-15T02:39:33.985Z,20.30
2022-09-15T02:40:33.716Z,21.70
2022-09-15T02:41:33.825Z,22.60
2022-09-15T02:42:33.741Z,25.80
2022-09-15T02:43:34.380Z,22.00
2022-09-15T02:44:34.631Z,29.70
2022-09-15T02:45:36.655Z,26.20
2022-09-15T02:46:33.438Z,32.00
2022-09-15T02:47:33.601Z,30.30
2022-09-15T02:48:33.231Z,34.30
2022-09-15T02:49:36.074Z,28.20
2022-09-15T02:50:35.254Z,25.80
2022-09-15T02:51:35.107Z,25.50
2022-09-15T02:52:34.163Z,22.30
2022-09-15T02:53:39.558Z,21.80
2022-09-15T02:54:35.356Z,22.50
2022-09-15T02:55:34.138Z,21.90
2022-09-15T02:56:33.243Z,25.00
2022-09-15T02:57:32.969Z,21.20
2022-09-15T02:58:33.864Z,21.50
2022-09-15T02:59:34.878Z,25.30
2022-09-15T03:00:33.759Z,23.30
2022-09-15T03:01:39.671Z,27.20
2022-09-15T03:02:35.224Z,30.20
2022-09-15T03:03:33.690Z,25.40
2022-09-15T03:04:34.645Z,36.00
2022-09-15T03:05:37.220Z,28.20
2022-09-15T03:06:35.574Z,31.30
2022-09-15T03:07:34.969Z,28.20
2022-09-15T03:08:33.426Z,27.60
2022-09-15T03:09:34.828Z,30.00
2022-09-15T03:10:36.091Z,29.60
2022-09-15T03:11:36.696Z,32.00
2022-09-15T03:12:33.671Z,28.30
2022-09-15T03:13:37.586Z,30.00
2022-09-15T03:14:34.593Z,25.90
2022-09-15T03:15:33.706Z,27.70
2022-09-15T03:16:36.054Z,27.70
2022-09-15T03:17:33.908Z,31.40
2022-09-15T03:18:41.202Z,34.10
2022-09-15T03:19:35.615Z,32.80
2022-09-15T03:20:32.219Z,32.20
2022-09-15T03:21:32.255Z,31.50
2022-09-15T03:22:32.269Z,32.70
2022-09-15T03:23:32.198Z,38.50
2022-09-15T03:24:32.205Z,35.60
2022-09-15T03:25:32.194Z,30.80
2022-09-15T03:26:32.238Z,37.90
2022-09-15T03:27:32.207Z,36.30
2022-09-15T03:28:32.166Z,37.70
2022-09-15T03:29:32.182Z,32.90
2022-09-15T03:30:32.174Z,41.10
2022-09-15T03:31:32.203Z,36.60
2022-09-15T03:32:32.187Z,43.80
2022-09-15T03:33:32.161Z,39.50
2022-09-15T03:34:32.122Z,39.50
2022-09-15T03:35:32.120Z,38.30
2022-09-15T03:36:32.143Z,33.00
2022-09-15T03:37:32.109Z,40.60
2022-09-15T03:38:32.093Z,45.80
2022-09-15T03:39:32.120Z,43.00
2022-09-15T03:40:32.192Z,45.40
2022-09-15T03:41:32.106Z,46.80
2022-09-15T03:42:32.065Z,42.60
2022-09-15T03:43:32.058Z,39.90
2022-09-15T03:44:32.094Z,39.80
2022-09-15T03:45:32.080Z,37.40
2022-09-15T03:46:32.030Z,41.30
2022-09-15T03:47:32.039Z,41.70
2022-09-15T03:48:32.014Z,39.40
2022-09-15T03:49:32.047Z,45.10
2022-09-15T03:50:32.021Z,45.60
2022-09-15T03:51:31.991Z,42.50
2022-09-15T03:52:32.035Z,40.40
2022-09-15T03:53:31.976Z,43.70
2022-09-15T03:54:31.984Z,44.20
2022-09-15T03:55:31.995Z,45.80
2022-09-15T03:56:31.969Z,45.60
2022-09-15T03:57:31.942Z,47.00
2022-09-15T03:58:31.945Z,47.60
2022-09-15T03:59:31.956Z,55.20
2022-09-15T04:00:31.951Z,51.40
2022-09-15T04:01:31.988Z,47.00
2022-09-15T04:02:31.902Z,47.60
2022-09-15T04:03:31.934Z,51.00
2022-09-15T04:04:31.916Z,42.30
2022-09-15T04:05:31.908Z,44.80
2022-09-15T04:06:31.915Z,46.20
2022-09-15T04:07:31.874Z,44.10
2022-09-15T04:08:31.871Z,46.90
2022-09-15T04:09:31.861Z,41.20
2022-09-15T04:10:31.884Z,38.80
2022-09-15T04:11:31.855Z,39.10
2022-09-15T04:12:31.855Z,34.90
2022-09-15T04:13:31.870Z,45.00
2022-09-15T04:14:31.842Z,46.20
2022-09-15T04:15:31.809Z,38.20
2022-09-15T04:16:31.890Z,36.20
2022-09-15T04:17:31.829Z,35.30
2022-09-15T04:18:31.776Z,30.40
2022-09-15T04:19:31.823Z,41.60
2022-09-15T04:20:31.792Z,40.10
2022-09-15T04:21:31.771Z,35.10
2022-09-15T04:22:32.787Z,42.50
2022-09-15T04:23:31.756Z,45.40
2022-09-15T04:24:31.751Z,37.40
2022-09-15T04:25:31.728Z,42.10
2022-09-15T04:26:31.710Z,44.00
2022-09-15T04:27:31.739Z,43.90
2022-09-15T04:28:31.721Z,34.90
2022-09-15T04:29:31.709Z,41.20
2022-09-15T04:30:31.689Z,44.10
2022-09-15T04:31:32.696Z,33.40
2022-09-15T04:32:31.729Z,37.80
2022-09-15T04:33:31.662Z,44.60
2022-09-15T04:34:31.666Z,43.30
2022-09-15T04:35:31.695Z,32.80
2022-09-15T04:36:31.644Z,29.50
2022-09-15T04:37:31.667Z,29.60
2022-09-15T04:38:31.651Z,28.60
2022-09-15T04:39:31.710Z,30.80
2022-09-15T04:40:31.649Z,40.40
2022-09-15T04:41:31.614Z,47.60
2022-09-15T04:42:31.650Z,42.20
2022-09-15T04:43:31.587Z,44.20
2022-09-15T04:44:31.591Z,42.00
2022-09-15T04:45:31.616Z,38.50
2022-09-15T04:46:31.717Z,38.30
2022-09-15T04:47:31.620Z,45.70
2022-09-15T04:48:31.565Z,42.50
2022-09-15T04:49:31.547Z,38.00
2022-09-15T04:50:32.518Z,34.40
2022-09-15T04:51:31.633Z,33.40
2022-09-15T04:52:31.500Z,37.30
2022-09-15T04:53:31.505Z,34.00
2022-09-15T04:54:31.514Z,34.20
2022-09-15T04:55:31.544Z,31.70
2022-09-15T04:56:31.494Z,40.10
2022-09-15T04:57:31.477Z,40.50
2022-09-15T04:58:31.472Z,46.60
2022-09-15T04:59:31.458Z,35.70
2022-09-15T05:00:31.504Z,29.80
2022-09-15T05:01:31.479Z,28.90
2022-09-15T05:02:31.548Z,28.10
2022-09-15T05:03:31.429Z,54.80
2022-09-15T05:04:31.416Z,59.60
2022-09-15T05:05:31.453Z,54.60
2022-09-15T05:06:31.417Z,41.20
2022-09-15T05:07:31.377Z,33.30
2022-09-15T05:08:31.386Z,25.50
2022-09-15T05:09:31.404Z,34.00
2022-09-15T05:10:31.371Z,36.70
2022-09-15T05:11:31.379Z,33.20
2022-09-15T05:12:31.392Z,24.80
2022-09-15T05:13:31.343Z,30.60
2022-09-15T05:14:31.355Z,23.40
2022-09-15T05:15:31.366Z,24.80
2022-09-15T05:16:31.407Z,27.20
2022-09-15T05:17:31.335Z,26.80
2022-09-15T05:18:31.321Z,35.40
2022-09-15T05:19:31.334Z,35.00
2022-09-15T05:20:31.309Z,37.90
2022-09-15T05:21:31.290Z,36.70
2022-09-15T05:22:31.405Z,45.10
2022-09-15T05:23:31.265Z,33.00
2022-09-15T05:24:31.294Z,35.40
2022-09-15T05:25:31.287Z,37.10
2022-09-15T05:26:31.237Z,48.90
2022-09-15T05:27:31.298Z,39.50
2022-09-15T05:28:31.262Z,34.40
2022-09-15T05:29:31.235Z,32.20
2022-09-15T05:30:42.462Z,25.50
2022-09-15T05:31:33.324Z,23.60
2022-09-15T05:32:31.212Z,23.90
2022-09-15T05:33:31.197Z,24.40
2022-09-15T05:34:31.173Z,22.30
2022-09-15T05:35:31.219Z,25.00
2022-09-15T05:36:31.186Z,23.70
2022-09-15T05:37:31.177Z,23.80
2022-09-15T05:38:31.158Z,18.80
2022-09-15T05:39:31.180Z,37.20
2022-09-15T05:40:31.165Z,22.10
2022-09-15T05:41:31.136Z,27.40
2022-09-15T05:42:31.130Z,25.20
2022-09-15T05:43:31.110Z,24.20
2022-09-15T05:44:31.135Z,21.60
2022-09-15T05:45:31.117Z,25.40
2022-09-15T05:46:31.146Z,27.30
2022-09-15T05:47:31.113Z,24.70
2022-09-15T05:48:31.079Z,40.70
2022-09-15T05:49:31.101Z,33.90
2022-09-15T05:50:31.075Z,28.90
2022-09-15T05:51:31.099Z,22.20
2022-09-15T05:52:31.044Z,22.00
2022-09-15T05:53:31.057Z,22.10
2022-09-15T05:54:31.046Z,21.30
2022-09-15T05:55:31.025Z,22.00
2022-09-15T05:56:31.036Z,21.20
2022-09-15T05:57:31.034Z,25.90
2022-09-15T05:58:30.988Z,24.00
2022-09-15T05:59:30.979Z,22.40
2022-09-15T06:00:31.002Z,26.10
2022-09-15T06:01:31.030Z,22.20
2022-09-15T06:02:31.016Z,22.40
2022-09-15T06:03:31.263Z,23.30
2022-09-15T06:04:31.949Z,22.90
2022-09-15T06:05:30.930Z,22.40
2022-09-15T06:06:30.935Z,22.90
2022-09-15T06:07:30.962Z,22.20
2022-09-15T06:08:30.924Z,24.80
2022-09-15T06:09:30.934Z,28.70
2022-09-15T06:10:30.874Z,24.40
2022-09-15T06:11:30.984Z,24.50
2022-09-15T06:12:31.006Z,24.10
2022-09-15T06:13:30.940Z,23.20
2022-09-15T06:14:30.955Z,24.30
2022-09-15T06:15:30.925Z,24.20
2022-09-15T06:16:31.045Z,23.90
2022-09-15T06:17:31.021Z,22.90
2022-09-15T06:18:30.901Z,26.70
2022-09-15T06:19:30.993Z,25.70
2022-09-15T06:20:30.898Z,25.20
2022-09-15T06:21:30.794Z,25.50
2022-09-15T06:22:30.938Z,25.10
2022-09-15T06:23:30.811Z,23.50
2022-09-15T06:24:30.847Z,25.10
2022-09-15T06:25:30.798Z,25.10
2022-09-15T06:26:30.759Z,28.40
2022-09-15T06:27:30.748Z,30.40
2022-09-15T06:28:30.897Z,25.90
2022-09-15T06:29:30.765Z,28.20
2022-09-15T06:30:30.726Z,31.50
2022-09-15T06:31:30.830Z,26.70
2022-09-15T06:32:30.777Z,28.90
2022-09-15T06:33:31.787Z,32.60
2022-09-15T06:34:30.730Z,25.60
2022-09-15T06:35:30.749Z,37.30
2022-09-15T06:36:30.700Z,32.30
2022-09-15T06:37:30.685Z,30.00
2022-09-15T06:38:30.672Z,26.40
2022-09-15T06:39:30.666Z,26.90
2022-09-15T06:40:30.774Z,27.50
2022-09-15T06:41:47.148Z,26.30
2022-09-15T06:42:32.667Z,34.10
2022-09-15T06:43:30.652Z,32.10
2022-09-15T06:44:30.619Z,29.70
2022-09-15T06:45:30.655Z,25.70
2022-09-15T06:46:30.694Z,33.40
2022-09-15T06:47:30.594Z,27.90
2022-09-15T06:48:30.683Z,27.80
2022-09-15T06:49:30.591Z,28.80
2022-09-15T06:50:30.643Z,30.50
2022-09-15T06:51:30.595Z,35.80
2022-09-15T06:52:30.692Z,29.80
2022-09-15T06:53:30.552Z,32.90
2022-09-15T06:54:30.608Z,27.40
2022-09-15T06:55:30.548Z,30.30
2022-09-15T06:56:34.488Z,25.20
2022-09-15T06:57:31.578Z,36.80
2022-09-15T06:58:30.515Z,28.60
2022-09-15T06:59:30.546Z,26.50
2022-09-15T07:00:30.485Z,36.90
2022-09-15T07:01:30.550Z,38.10
2022-09-15T07:02:30.637Z,30.70
2022-09-15T07:03:30.586Z,26.00
2022-09-15T07:04:30.545Z,25.50
2022-09-15T07:05:30.445Z,23.80
2022-09-15T07:06:30.466Z,29.70
2022-09-15T07:07:30.504Z,29.80
2022-09-15T07:08:30.462Z,24.60
2022-09-15T07:09:30.419Z,30.80
2022-09-15T07:10:30.471Z,37.70
2022-09-15T07:11:30.415Z,36.90
2022-09-15T07:12:30.502Z,30.20
2022-09-15T07:13:30.441Z,33.70
2022-09-15T07:14:30.405Z,26.40
2022-09-15T07:15:30.389Z,28.30
2022-09-15T07:16:30.473Z,29.00
2022-09-15T07:17:30.426Z,25.60
2022-09-15T07:18:30.381Z,34.40
2022-09-15T07:19:30.430Z,27.10
2022-09-15T07:20:30.374Z,37.70
2022-09-15T07:21:30.344Z,32.10
2022-09-15T07:22:30.373Z,32.60
2022-09-15T07:23:30.339Z,28.50
2022-09-15T07:24:30.326Z,25.10
2022-09-15T07:25:30.313Z,34.70
2022-09-15T07:26:30.297Z,30.90
2022-09-15T07:27:30.313Z,25.50
2022-09-15T07:28:30.295Z,30.00
2022-09-15T07:29:30.291Z,23.70
2022-09-15T07:30:30.271Z,22.00
2022-09-15T07:31:30.335Z,21.30
2022-09-15T07:32:30.317Z,20.30
2022-09-15T07:33:30.242Z,19.70
2022-09-15T07:34:30.266Z,23.10
2022-09-15T07:35:30.268Z,20.10
2022-09-15T07:36:30.333Z,19.30
2022-09-15T07:37:30.263Z,18.10
2022-09-15T07:38:30.208Z,20.70
2022-09-15T07:39:30.237Z,18.10
2022-09-15T07:40:30.257Z,18.70
2022-09-15T07:41:30.212Z,18.00
2022-09-15T07:42:35.200Z,17.90
2022-09-15T07:43:32.179Z,17.90
2022-09-15T07:44:30.186Z,18.50
2022-09-15T07:45:30.205Z,18.00
2022-09-15T07:46:30.163Z,18.80
2022-09-15T07:47:30.173Z,17.70
2022-09-15T07:48:30.129Z,19.40
2022-09-15T07:49:30.151Z,19.00
2022-09-15T07:50:30.269Z,18.60
2022-09-15T07:51:30.173Z,19.10
2022-09-15T07:52:30.122Z,22.30
2022-09-15T07:53:30.159Z,20.80
2022-09-15T07:54:30.176Z,17.90
2022-09-15T07:55:30.089Z,16.80
2022-09-15T07:56:30.091Z,16.40
2022-09-15T07:57:30.076Z,17.00
2022-09-15T07:58:30.104Z,16.40
2022-09-15T07:59:30.073Z,17.40
2022-09-15T08:00:30.102Z,17.30
2022-09-15T08:01:30.117Z,19.30
2022-09-15T08:02:30.149Z,20.50
2022-09-15T08:03:30.060Z,19.20
2022-09-15T08:04:30.029Z,19.20
2022-09-15T08:05:30.012Z,22.70
2022-09-15T08:06:30.070Z,17.00
2022-09-15T08:07:30.029Z,20.40
2022-09-15T08:08:30.015Z,17.20
2022-09-15T08:09:30.080Z,15.60
2022-09-15T08:10:29.999Z,15.70
2022-09-15T08:11:30.139Z,17.10
2022-09-15T08:12:29.989Z,16.60
2022-09-15T08:13:29.959Z,17.80
2022-09-15T08:14:29.966Z,16.50
2022-09-15T08:15:29.949Z,17.60
2022-09-15T08:16:30.023Z,16.00
2022-09-15T08:17:29.940Z,16.30
2022-09-15T08:18:29.918Z,14.30
2022-09-15T08:19:29.925Z,15.20
2022-09-15T08:20:29.912Z,14.30
2022-09-15T08:21:29.960Z,14.30
2022-09-15T08:22:29.897Z,14.80
2022-09-15T08:23:29.884Z,14.30
2022-09-15T08:24:29.961Z,12.40
2022-09-15T08:25:29.900Z,13.60
2022-09-15T08:26:29.926Z,14.60
2022-09-15T08:27:29.883Z,13.90
2022-09-15T08:28:29.889Z,12.30
2022-09-15T08:29:29.869Z,11.80
2022-09-15T08:30:29.841Z,13.00
2022-09-15T08:31:30.044Z,12.20
2022-09-15T08:32:30.995Z,12.00
2022-09-15T08:33:29.927Z,11.00
2022-09-15T08:34:29.832Z,10.40
2022-09-15T08:35:29.823Z,10.50
2022-09-15T08:36:29.864Z,11.60
2022-09-15T08:37:29.829Z,10.30
2022-09-15T08:38:29.822Z,10.60
2022-09-15T08:39:29.802Z,10.90
2022-09-15T08:40:29.880Z,10.80
2022-09-15T08:41:29.798Z,10.30
2022-09-15T08:42:29.780Z,9.70
2022-09-15T08:43:30.788Z,9.70
2022-09-15T08:44:29.744Z,9.20
2022-09-15T08:45:29.828Z,8.90
2022-09-15T08:46:29.851Z,9.00
2022-09-15T08:47:29.731Z,7.60
2022-09-15T08:48:29.764Z,7.50
2022-09-15T08:49:49.918Z,7.20
2022-09-15T08:50:31.735Z,7.20
2022-09-15T08:51:29.696Z,7.70
2022-09-15T08:52:29.702Z,6.80
2022-09-15T08:53:29.697Z,8.50
2022-09-15T08:54:29.735Z,6.80
2022-09-15T08:55:29.676Z,5.50
2022-09-15T08:56:29.685Z,5.40
2022-09-15T08:57:29.673Z,5.30
2022-09-15T08:58:29.676Z,5.90
2022-09-15T08:59:29.735Z,5.70
2022-09-15T09:00:29.772Z,4.90
2022-09-15T09:01:29.739Z,5.10
2022-09-15T09:02:29.737Z,5.60
2022-09-15T09:03:29.631Z,6.10
2022-09-15T09:04:29.614Z,6.20
2022-09-15T09:05:29.666Z,5.80
2022-09-15T09:06:29.664Z,4.90
2022-09-15T09:07:29.621Z,6.30
2022-09-15T09:08:29.593Z,7.60
2022-09-15T09:09:29.588Z,3.20
2022-09-15T09:10:29.595Z,3.30
2022-09-15T09:11:29.613Z,4.00
2022-09-15T09:12:29.593Z,3.60
2022-09-15T09:13:34.680Z,3.60
2022-09-15T09:14:31.581Z,3.40
2022-09-15T09:15:29.595Z,4.70
2022-09-15T09:16:29.588Z,4.00
2022-09-15T09:17:29.594Z,3.50
2022-09-15T09:18:29.534Z,4.50
2022-09-15T09:19:32.171Z,7.20
2022-09-15T09:20:30.581Z,3.70
2022-09-15T09:21:29.548Z,4.80
2022-09-15T09:22:29.553Z,3.70
2022-09-15T09:23:29.511Z,4.40
2022-09-15T09:24:29.548Z,4.90
2022-09-15T09:25:29.496Z,3.70
2022-09-15T09:26:29.538Z,3.50
2022-09-15T09:27:29.546Z,4.20
2022-09-15T09:28:29.490Z,4.30
2022-09-15T09:29:29.535Z,6.00
2022-09-15T09:30:29.490Z,5.90
2022-09-15T09:31:29.508Z,4.20
2022-09-15T09:32:29.459Z,4.20
2022-09-15T09:33:29.523Z,4.00
2022-09-15T09:34:29.475Z,3.90
2022-09-15T09:35:29.452Z,7.20
2022-09-15T09:36:29.446Z,4.00
2022-09-15T09:37:29.441Z,4.20
2022-09-15T09:38:29.449Z,7.00
2022-09-15T09:39:29.407Z,4.00
2022-09-15T09:40:29.462Z,8.60
2022-09-15T09:41:29.411Z,3.90
2022-09-15T09:42:29.462Z,6.40
2022-09-15T09:43:29.457Z,4.30
2022-09-15T09:44:29.366Z,3.30
2022-09-15T09:45:29.374Z,3.50
2022-09-15T09:46:29.407Z,3.80
2022-09-15T09:47:29.374Z,3.60
2022-09-15T09:48:29.366Z,5.30
2022-09-15T09:49:29.425Z,3.80
2022-09-15T09:50:29.359Z,3.50
2022-09-15T09:51:29.321Z,3.50
2022-09-15T09:52:29.335Z,3.60
2022-09-15T09:53:29.298Z,7.80
2022-09-15T09:54:29.333Z,3.00
2022-09-15T09:55:29.294Z,3.30
2022-09-15T09:56:29.305Z,4.30
2022-09-15T09:57:29.344Z,3.40
2022-09-15T09:58:29.303Z,3.30
2022-09-15T09:59:29.298Z,3.30
2022-09-15T10:00:29.253Z,3.30
2022-09-15T10:01:29.324Z,5.90
2022-09-15T10:02:29.277Z,5.30
2022-09-15T10:03:32.846Z,3.50
2022-09-15T10:04:30.351Z,7.50
2022-09-15T10:05:29.297Z,4.30
2022-09-15T10:06:29.229Z,3.10
2022-09-15T10:07:29.220Z,3.50
2022-09-15T10:08:29.208Z,7.00
2022-09-15T10:09:33.289Z,6.80
2022-09-15T10:10:30.361Z,3.00
2022-09-15T10:11:29.191Z,3.00
2022-09-15T10:12:29.194Z,8.30
2022-09-15T10:13:29.186Z,2.70
2022-09-15T10:14:29.175Z,4.10
2022-09-15T10:15:29.185Z,3.50
2022-09-15T10:16:29.177Z,3.00
2022-09-15T10:17:29.134Z,4.70
2022-09-15T10:18:29.165Z,2.70
2022-09-15T10:19:29.229Z,3.40
2022-09-15T10:20:29.161Z,2.30
2022-09-15T10:21:29.145Z,3.60
2022-09-15T10:22:29.115Z,6.90
2022-09-15T10:23:29.139Z,5.40
2022-09-15T10:24:29.139Z,4.10
2022-09-15T10:25:44.271Z,2.40
2022-09-15T10:26:31.145Z,3.90
2022-09-15T10:27:29.090Z,2.60
2022-09-15T10:28:29.093Z,7.00
2022-09-15T10:29:29.072Z,4.90
2022-09-15T10:30:29.103Z,3.80
2022-09-15T10:31:29.168Z,6.30
2022-09-15T10:32:29.077Z,5.20
2022-09-15T10:33:29.048Z,4.90
2022-09-15T10:34:29.033Z,1.70
2022-09-15T10:35:29.061Z,2.50
2022-09-15T10:36:29.051Z,3.80
2022-09-15T10:37:29.126Z,2.90
2022-09-15T10:38:29.016Z,3.80
2022-09-15T10:39:29.032Z,3.20
2022-09-15T10:40:29.022Z,3.90
2022-09-15T10:41:29.004Z,2.30
2022-09-15T10:42:29.039Z,3.40
2022-09-15T10:43:29.035Z,3.60
2022-09-15T10:44:29.156Z,5.70
2022-09-15T10:45:29.162Z,3.20
2022-09-15T10:46:28.996Z,4.40
2022-09-15T10:47:28.972Z,3.70
2022-09-15T10:48:28.935Z,1.70
2022-09-15T10:49:28.951Z,3.20
2022-09-15T10:50:28.923Z,3.70
2022-09-15T10:51:28.993Z,5.10
2022-09-15T10:52:28.993Z,2.90
2022-09-15T10:53:29.028Z,4.50
2022-09-15T10:54:28.943Z,3.30
2022-09-15T10:55:51.106Z,3.10
2022-09-15T10:56:30.884Z,4.20
2022-09-15T10:57:28.945Z,5.00
2022-09-15T10:58:29.020Z,1.50
2022-09-15T10:59:28.929Z,2.90
2022-09-15T11:00:28.967Z,4.20
2022-09-15T11:01:28.856Z,1.50
2022-09-15T11:02:28.955Z,2.50
2022-09-15T11:03:28.876Z,1.80
2022-09-15T11:04:28.844Z,2.50
2022-09-15T11:05:28.857Z,2.30
2022-09-15T11:06:28.855Z,2.80
2022-09-15T11:07:28.824Z,3.60
2022-09-15T11:08:28.837Z,1.60
2022-09-15T11:09:28.800Z,6.40
2022-09-15T11:10:28.892Z,4.40
2022-09-15T11:11:28.823Z,2.20
2022-09-15T11:12:29.563Z,1.70
2022-09-15T11:13:29.785Z,2.50
2022-09-15T11:14:28.788Z,2.50
2022-09-15T11:15:28.757Z,3.70
2022-09-15T11:16:28.882Z,1.80
2022-09-15T11:17:28.857Z,2.60
2022-09-15T11:18:28.737Z,1.60
2022-09-15T11:19:28.773Z,5.20
2022-09-15T11:20:28.792Z,3.90
2022-09-15T11:21:29.708Z,4.20
2022-09-15T11:22:28.783Z,2.90
2022-09-15T11:23:28.756Z,3.20
2022-09-15T11:24:28.694Z,2.10
2022-09-15T11:25:28.731Z,2.30
2022-09-15T11:26:28.712Z,1.60
2022-09-15T11:27:28.747Z,2.20
2022-09-15T11:28:28.666Z,1.10
2022-09-15T11:29:28.679Z,1.60
2022-09-15T11:30:28.676Z,1.40
2022-09-15T11:31:28.682Z,1.90
2022-09-15T11:32:28.677Z,3.80
2022-09-15T11:33:28.782Z,5.20
2022-09-15T11:34:28.636Z,1.00
2022-09-15T11:35:28.635Z,1.80
2022-09-15T11:36:28.613Z,1.70
2022-09-15T11:37:28.631Z,2.90
2022-09-15T11:38:28.624Z,5.00
2022-09-15T11:39:28.659Z,3.30
2022-09-15T11:40:28.652Z,1.40
2022-09-15T11:41:28.661Z,2.10
2022-09-15T11:42:28.577Z,1.30
2022-09-15T11:43:28.595Z,4.40
2022-09-15T11:44:28.556Z,1.60
2022-09-15T11:45:28.572Z,1.60
2022-09-15T11:46:28.624Z,3.20
2022-09-15T11:47:28.559Z,3.30
2022-09-15T11:48:28.562Z,1.30
2022-09-15T11:49:28.551Z,2.20
2022-09-15T11:50:28.551Z,1.80
2022-09-15T11:51:28.546Z,2.70
2022-09-15T11:52:28.526Z,6.10
2022-09-15T11:53:28.534Z,1.20
2022-09-15T11:54:31.345Z,2.70
2022-09-15T11:55:29.507Z,5.10
2022-09-15T11:56:28.493Z,2.30
2022-09-15T11:57:28.489Z,1.20
2022-09-15T11:58:28.498Z,3.00
2022-09-15T11:59:28.471Z,4.00
2022-09-15T12:00:28.491Z,3.10
2022-09-15T12:01:28.515Z,2.00
2022-09-15T12:02:28.616Z,4.10
2022-09-15T12:03:28.453Z,1.80
2022-09-15T12:04:28.483Z,3.80
2022-09-15T12:05:28.474Z,4.90
2022-09-15T12:06:28.444Z,3.00
2022-09-15T12:07:28.435Z,2.00
2022-09-15T12:08:28.436Z,1.90
2022-09-15T12:09:28.442Z,3.40
2022-09-15T12:10:28.425Z,3.70
2022-09-15T12:11:28.449Z,6.30
2022-09-15T12:12:30.734Z,2.10
2022-09-15T12:13:28.402Z,1.90
2022-09-15T12:14:28.395Z,8.40
2022-09-15T12:15:28.539Z,1.70
2022-09-15T12:16:28.407Z,4.00
2022-09-15T12:17:28.397Z,6.00
2022-09-15T12:18:38.969Z,2.10
2022-09-15T12:19:30.350Z,7.50
2022-09-15T12:20:28.339Z,1.60
2022-09-15T12:21:28.382Z,3.10
2022-09-15T12:22:28.457Z,3.50
2022-09-15T12:23:28.343Z,3.80
2022-09-15T12:24:28.317Z,2.40
2022-09-15T12:25:28.335Z,1.90
2022-09-15T12:26:28.394Z,1.60
2022-09-15T12:27:28.327Z,1.30
2022-09-15T12:28:28.429Z,1.30
2022-09-15T12:29:28.325Z,1.40
2022-09-15T12:30:28.280Z,1.70
2022-09-15T12:31:28.358Z,3.40
2022-09-15T12:32:28.261Z,2.30
2022-09-15T12:33:28.292Z,3.50
2022-09-15T12:34:28.284Z,2.00
2022-09-15T12:35:28.277Z,1.70
2022-09-15T12:36:28.290Z,4.70
2022-09-15T12:37:28.251Z,1.90
2022-09-15T12:38:28.246Z,3.80
2022-09-15T12:39:28.314Z,2.40
2022-09-15T12:40:28.342Z,1.60
2022-09-15T12:41:28.294Z,3.10
2022-09-15T12:42:28.247Z,4.80
2022-09-15T12:43:28.247Z,2.70
2022-09-15T12:44:28.201Z,4.10
2022-09-15T12:45:28.185Z,2.20
2022-09-15T12:46:28.366Z,7.30
2022-09-15T12:47:28.195Z,9.60
2022-09-15T12:48:28.188Z,4.70
2022-09-15T12:49:28.224Z,1.30
2022-09-15T12:50:28.214Z,3.70
2022-09-15T12:51:28.186Z,3.10
2022-09-15T12:52:28.182Z,1.70
2022-09-15T12:53:28.214Z,3.70
2022-09-15T12:54:28.215Z,1.70
2022-09-15T12:55:28.186Z,1.70
2022-09-15T12:56:28.176Z,1.50
2022-09-15T12:57:28.172Z,1.40
2022-09-15T12:58:28.120Z,2.20
2022-09-15T12:59:28.111Z,1.50
2022-09-15T13:00:28.245Z,5.60
2022-09-15T13:01:28.157Z,2.80
2022-09-15T13:02:28.207Z,1.80